createdAt,value
2022-10-23T00:00:59.484Z,65.98
2022-10-23T00:03:30.206Z,66.19
2022-10-23T00:06:00.663Z,66.12
2022-10-23T00:08:31.083Z,66.09
2022-10-23T00:11:01.674Z,65.86
2022-10-23T00:13:32.154Z,65.96
2022-10-23T00:16:05.329Z,66.01
2022-10-23T00:18:36.026Z,65.75
2022-10-23T00:21:07.458Z,65.77
2022-10-23T00:23:37.899Z,65.67
2022-10-23T00:26:08.753Z,65.51
2022-10-23T00:28:39.168Z,65.45
2022-10-23T00:31:12.499Z,65.41
2022-10-23T00:33:45.071Z,65.41
2022-10-23T00:36:18.673Z,65.43
2022-10-23T00:38:49.587Z,65.26
2022-10-23T00:41:23.287Z,65.00
2022-10-23T00:44:10.456Z,64.97
2022-10-23T00:46:43.480Z,65.15
2022-10-23T00:49:13.998Z,64.97
2022-10-23T00:51:48.037Z,65.01
2022-10-23T00:54:24.435Z,65.00
2022-10-23T00:56:59.153Z,65.07
2022-10-23T00:59:30.260Z,65.16
2022-10-23T01:02:03.903Z,65.50
2022-10-23T01:04:35.241Z,65.45
2022-10-23T01:07:14.511Z,65.61
2022-10-23T01:09:54.809Z,65.47
2022-10-23T01:12:31.980Z,65.76
2022-10-23T01:15:09.678Z,65.73
2022-10-23T01:17:47.130Z,65.78
2022-10-23T01:20:34.888Z,66.01
2022-10-23T01:23:33.184Z,66.33
2022-10-23T01:26:20.530Z,66.21
2022-10-23T01:28:58.772Z,66.21
2022-10-23T01:31:36.810Z,66.22
2022-10-23T01:34:12.970Z,66.29
2022-10-23T01:36:50.084Z,66.20
2022-10-23T01:39:25.575Z,66.10
2022-10-23T01:42:00.869Z,66.31
2022-10-23T01:44:42.737Z,66.26
2022-10-23T01:47:16.100Z,66.14
2022-10-23T01:50:09.817Z,66.10
2022-10-23T01:52:43.137Z,66.05
2022-10-23T01:55:16.076Z,66.14
2022-10-23T01:57:48.739Z,66.12
2022-10-23T02:00:22.898Z,66.35
2022-10-23T02:02:59.132Z,66.39
2022-10-23T02:05:35.631Z,66.40
2022-10-23T02:08:09.455Z,66.75
2022-10-23T02:10:48.121Z,66.63
2022-10-23T02:13:26.190Z,66.92
2022-10-23T02:16:06.236Z,66.94
2022-10-23T02:18:42.967Z,67.07
2022-10-23T02:21:17.332Z,66.95
2022-10-23T02:23:56.302Z,67.05
2022-10-23T02:26:30.212Z,66.88
2022-10-23T02:29:07.452Z,66.81
2022-10-23T02:31:42.477Z,67.09
2022-10-23T02:34:13.598Z,67.13
2022-10-23T02:36:44.595Z,66.95
2022-10-23T02:39:15.845Z,67.21
2022-10-23T02:41:52.172Z,67.16
2022-10-23T02:44:42.007Z,67.58
2022-10-23T02:47:33.627Z,67.72
2022-10-23T02:50:10.248Z,67.53
2022-10-23T02:52:50.534Z,67.69
2022-10-23T02:55:30.995Z,67.81
2022-10-23T02:58:11.238Z,68.02
2022-10-23T03:00:52.386Z,68.06
2022-10-23T03:03:32.995Z,68.14
2022-10-23T03:06:04.417Z,68.13
2022-10-23T03:08:45.138Z,68.18
2022-10-23T03:11:15.550Z,68.12
2022-10-23T03:13:46.027Z,68.15
2022-10-23T03:16:16.415Z,67.98
2022-10-23T03:18:55.953Z,68.16
2022-10-23T03:21:27.453Z,68.07
2022-10-23T03:23:57.976Z,68.44
2022-10-23T03:26:42.290Z,68.29
2022-10-23T03:29:13.503Z,68.45
2022-10-23T03:31:49.256Z,68.27
2022-10-23T03:34:22.855Z,68.31
2022-10-23T03:36:56.594Z,68.50
2022-10-23T03:39:27.154Z,68.33
2022-10-23T03:41:57.599Z,68.05
2022-10-23T03:44:28.196Z,67.96
2022-10-23T03:47:00.899Z,67.73
2022-10-23T03:49:34.151Z,67.60
2022-10-23T03:52:09.499Z,66.18
2022-10-23T03:54:40.068Z,66.11
2022-10-23T03:57:10.563Z,65.62
2022-10-23T03:59:41.096Z,65.05
2022-10-23T04:02:11.787Z,64.47
2022-10-23T04:04:45.155Z,64.02
2022-10-23T04:07:17.126Z,63.68
2022-10-23T04:09:48.689Z,63.05
2022-10-23T04:12:20.326Z,62.62
2022-10-23T04:14:50.748Z,62.13
2022-10-23T04:17:21.501Z,61.73
2022-10-23T04:19:55.866Z,61.29
2022-10-23T04:22:28.380Z,60.77
2022-10-23T04:24:59.365Z,60.25
2022-10-23T04:27:29.831Z,60.24
2022-10-23T04:30:00.366Z,60.16
2022-10-23T04:32:31.571Z,59.88
2022-10-23T04:35:04.788Z,59.61
2022-10-23T04:37:35.511Z,59.39
2022-10-23T04:40:06.271Z,59.08
2022-10-23T04:42:39.548Z,59.25
2022-10-23T04:45:11.243Z,59.14
2022-10-23T04:47:44.154Z,59.16
2022-10-23T04:50:18.170Z,59.17
2022-10-23T04:53:07.175Z,59.25
2022-10-23T04:55:37.660Z,59.17
2022-10-23T04:58:16.090Z,59.07
2022-10-23T05:00:47.954Z,59.44
2022-10-23T05:03:26.884Z,59.39
2022-10-23T05:06:00.258Z,59.60
2022-10-23T05:08:57.310Z,59.59
2022-10-23T05:11:46.210Z,59.63
2022-10-23T05:14:21.979Z,59.76
2022-10-23T05:16:57.982Z,59.76
2022-10-23T05:19:32.131Z,59.99
2022-10-23T05:22:05.810Z,59.97
2022-10-23T05:24:57.867Z,59.77
2022-10-23T05:27:30.136Z,59.99
2022-10-23T05:30:00.646Z,59.89
2022-10-23T05:32:35.189Z,60.04
2022-10-23T05:35:10.742Z,59.98
2022-10-23T05:37:46.798Z,60.12
2022-10-23T05:40:23.117Z,59.73
2022-10-23T05:42:57.850Z,59.32
2022-10-23T05:46:01.007Z,59.44
2022-10-23T05:48:46.773Z,59.23
2022-10-23T05:51:21.307Z,59.01
2022-10-23T05:54:08.666Z,59.09
2022-10-23T05:56:52.036Z,58.78
2022-10-23T05:59:45.796Z,58.95
2022-10-23T06:02:26.641Z,58.85
2022-10-23T06:05:04.174Z,58.51
2022-10-23T06:07:44.290Z,58.60
2022-10-23T06:10:18.324Z,58.54
2022-10-23T06:12:54.971Z,58.86
2022-10-23T06:15:25.499Z,58.88
2022-10-23T06:18:04.043Z,58.61
2022-10-23T06:20:40.131Z,58.42
2022-10-23T06:23:19.328Z,58.47
2022-10-23T06:26:13.300Z,58.27
2022-10-23T06:29:19.382Z,58.13
2022-10-23T06:31:52.711Z,58.24
2022-10-23T06:34:23.378Z,58.19
2022-10-23T06:36:53.908Z,58.42
2022-10-23T06:39:47.386Z,58.81
2022-10-23T06:42:23.531Z,58.87
2022-10-23T06:45:04.709Z,58.16
2022-10-23T06:47:57.101Z,58.21
2022-10-23T06:50:46.266Z,57.49
2022-10-23T06:53:23.913Z,57.36
2022-10-23T06:56:08.494Z,57.03
2022-10-23T06:58:43.367Z,55.58
2022-10-23T07:01:18.807Z,54.77
2022-10-23T07:03:51.523Z,53.31
2022-10-23T07:06:27.797Z,52.07
2022-10-23T07:08:58.527Z,50.92
2022-10-23T07:12:01.294Z,48.06
2022-10-23T07:14:43.878Z,47.50
2022-10-23T07:17:15.102Z,47.32
2022-10-23T07:19:45.951Z,46.44
2022-10-23T07:22:18.733Z,45.00
2022-10-23T07:25:08.627Z,44.66
2022-10-23T07:27:43.280Z,43.62
2022-10-23T07:30:18.062Z,43.18
2022-10-23T07:32:53.769Z,42.14
2022-10-23T07:35:50.251Z,41.62
2022-10-23T07:38:30.313Z,41.63
2022-10-23T07:41:01.315Z,41.29
2022-10-23T07:46:08.441Z,41.29
2022-10-23T07:48:43.198Z,41.15
2022-10-23T07:51:17.220Z,42.14
2022-10-23T07:53:50.172Z,42.41
2022-10-23T07:56:49.613Z,42.68
2022-10-23T07:59:33.447Z,42.93
2022-10-23T08:02:17.952Z,43.51
2022-10-23T08:04:51.452Z,43.69
2022-10-23T08:07:29.982Z,43.61
2022-10-23T08:10:01.834Z,43.53
2022-10-23T08:12:33.620Z,43.00
2022-10-23T08:15:04.773Z,43.31
2022-10-23T08:17:48.232Z,43.11
2022-10-23T08:20:24.337Z,43.47
2022-10-23T08:22:56.779Z,43.97
2022-10-23T08:25:29.294Z,43.90
2022-10-23T08:28:02.017Z,44.04
2022-10-23T08:30:35.331Z,44.34
2022-10-23T08:33:09.866Z,43.96
2022-10-23T08:35:41.643Z,44.20
2022-10-23T08:38:13.452Z,43.97
2022-10-23T08:40:49.776Z,44.23
2022-10-23T08:43:42.462Z,44.38
2022-10-23T08:46:34.988Z,44.03
2022-10-23T08:49:38.581Z,44.07
2022-10-23T08:52:18.876Z,44.07
2022-10-23T08:55:03.329Z,43.81
2022-10-23T08:57:41.386Z,43.27
2022-10-23T09:00:18.468Z,43.21
2022-10-23T09:02:51.092Z,43.44
2022-10-23T09:05:30.435Z,43.38
2022-10-23T09:08:14.665Z,42.96
2022-10-23T09:11:04.685Z,43.00
2022-10-23T09:13:59.332Z,41.69
2022-10-23T09:16:42.128Z,41.92
2022-10-23T09:19:17.704Z,42.30
2022-10-23T09:21:52.858Z,42.24
2022-10-23T09:24:25.075Z,41.47
2022-10-23T09:26:56.855Z,42.06
2022-10-23T09:29:29.916Z,42.12
2022-10-23T09:32:01.959Z,42.01
2022-10-23T09:34:33.932Z,42.16
2022-10-23T09:37:23.455Z,42.02
2022-10-23T09:40:05.530Z,41.70
2022-10-23T09:42:36.079Z,42.53
2022-10-23T09:45:06.978Z,42.25
2022-10-23T09:47:37.573Z,42.38
2022-10-23T09:50:23.361Z,41.95
2022-10-23T09:52:59.002Z,42.66
2022-10-23T09:55:30.470Z,42.71
2022-10-23T09:58:01.299Z,42.60
2022-10-23T10:00:31.774Z,42.01
2022-10-23T10:03:04.010Z,42.21
2022-10-23T10:06:05.705Z,41.80
2022-10-23T10:08:49.533Z,42.02
2022-10-23T10:11:28.203Z,41.89
2022-10-23T10:14:27.942Z,41.71
2022-10-23T10:17:04.817Z,42.04
2022-10-23T10:19:48.600Z,42.09
2022-10-23T10:22:30.088Z,41.70
2022-10-23T10:25:12.334Z,41.79
2022-10-23T10:27:55.534Z,41.61
2022-10-23T10:30:27.566Z,41.67
2022-10-23T10:33:02.056Z,41.40
2022-10-23T10:35:41.012Z,40.65
2022-10-23T10:38:30.636Z,40.59
2022-10-23T10:41:30.101Z,41.03
2022-10-23T10:44:13.896Z,40.19
2022-10-23T10:46:49.708Z,39.95
2022-10-23T10:49:26.571Z,39.97
2022-10-23T10:52:22.798Z,39.94
2022-10-23T10:55:04.155Z,38.97
2022-10-23T10:57:42.606Z,36.92
2022-10-23T11:00:18.425Z,38.81
2022-10-23T11:02:51.294Z,38.69
2022-10-23T11:05:29.734Z,38.37
2022-10-23T11:08:03.424Z,38.33
2022-10-23T11:10:35.696Z,38.16
2022-10-23T11:13:08.965Z,37.30
2022-10-23T11:15:47.556Z,36.69
2022-10-23T11:18:26.765Z,36.06
2022-10-23T11:21:08.911Z,36.98
2022-10-23T11:24:15.892Z,37.44
2022-10-23T11:27:00.372Z,36.93
2022-10-23T11:29:57.410Z,37.56
2022-10-23T11:32:44.521Z,37.98
2022-10-23T11:35:31.023Z,37.69
2022-10-23T11:38:03.907Z,37.45
2022-10-23T11:40:34.606Z,37.13
2022-10-23T11:43:05.068Z,36.95
2022-10-23T11:45:40.421Z,36.48
2022-10-23T11:48:24.984Z,36.13
2022-10-23T11:51:00.215Z,35.42
2022-10-23T11:53:42.690Z,33.46
2022-10-23T11:56:31.346Z,33.74
2022-10-23T11:59:02.532Z,35.18
2022-10-23T12:01:40.205Z,34.80
2022-10-23T12:04:25.382Z,34.43
2022-10-23T12:06:56.956Z,32.74
2022-10-23T12:09:36.267Z,35.29
2022-10-23T12:12:18.731Z,34.81
2022-10-23T12:14:51.189Z,33.62
2022-10-23T12:17:36.071Z,33.24
2022-10-23T12:20:32.764Z,33.87
2022-10-23T12:23:19.026Z,33.72
2022-10-23T12:26:07.922Z,34.44
2022-10-23T12:28:44.976Z,34.75
2022-10-23T12:31:28.995Z,34.82
2022-10-23T12:34:13.117Z,35.37
2022-10-23T12:36:56.978Z,35.37
2022-10-23T12:39:29.758Z,35.80
2022-10-23T12:42:01.780Z,36.55
2022-10-23T12:44:33.155Z,37.05
2022-10-23T12:47:05.534Z,36.95
2022-10-23T12:49:38.760Z,36.86
2022-10-23T12:52:18.658Z,37.50
2022-10-23T12:54:50.947Z,37.30
2022-10-23T12:57:26.063Z,37.33
2022-10-23T13:00:00.927Z,37.71
2022-10-23T13:02:32.972Z,37.99
2022-10-23T13:05:11.613Z,38.25
2022-10-23T13:07:52.271Z,38.28
2022-10-23T13:10:31.299Z,38.29
2022-10-23T13:13:10.352Z,38.51
2022-10-23T13:15:42.654Z,38.54
2022-10-23T13:18:14.460Z,38.34
2022-10-23T13:20:59.888Z,38.36
2022-10-23T13:23:32.562Z,38.26
2022-10-23T13:26:04.223Z,38.82
2022-10-23T13:28:36.728Z,39.27
2022-10-23T13:31:10.663Z,39.12
2022-10-23T13:33:42.442Z,38.71
2022-10-23T13:36:27.654Z,39.32
2022-10-23T13:39:15.427Z,39.61
2022-10-23T13:41:47.759Z,39.40
2022-10-23T13:44:21.879Z,39.78
2022-10-23T13:46:52.630Z,39.48
2022-10-23T13:49:23.234Z,39.17
2022-10-23T13:51:59.232Z,39.45
2022-10-23T13:54:31.474Z,39.49
2022-10-23T13:57:02.098Z,39.78
2022-10-23T13:59:32.559Z,39.87
2022-10-23T14:02:05.263Z,40.08
2022-10-23T14:04:35.862Z,39.53
2022-10-23T14:07:09.019Z,39.73
2022-10-23T14:09:39.495Z,39.72
2022-10-23T14:12:10.222Z,40.06
2022-10-23T14:14:40.747Z,40.01
2022-10-23T14:17:11.439Z,39.87
2022-10-23T14:19:42.345Z,39.66
2022-10-23T14:22:16.648Z,39.88
2022-10-23T14:24:47.129Z,39.93
2022-10-23T14:27:17.665Z,40.21
2022-10-23T14:29:48.105Z,40.06
2022-10-23T14:32:18.661Z,39.99
2022-10-23T14:34:54.472Z,39.84
2022-10-23T14:37:27.613Z,40.38
2022-10-23T14:39:58.004Z,39.98
2022-10-23T14:42:34.190Z,40.49
2022-10-23T14:45:04.983Z,40.34
2022-10-23T14:47:35.611Z,40.47
2022-10-23T14:50:06.900Z,40.91
2022-10-23T14:52:40.134Z,40.74
2022-10-23T14:55:11.659Z,40.92
2022-10-23T14:57:43.181Z,41.45
2022-10-23T15:00:15.557Z,41.30
2022-10-23T15:02:46.479Z,41.34
2022-10-23T15:05:17.299Z,41.67
2022-10-23T15:07:50.463Z,41.81
2022-10-23T15:10:21.116Z,42.11
2022-10-23T15:12:51.618Z,42.10
2022-10-23T15:15:22.547Z,42.30
2022-10-23T15:17:53.188Z,42.26
2022-10-23T15:20:23.617Z,42.84
2022-10-23T15:22:56.732Z,43.11
2022-10-23T15:25:27.212Z,43.01
2022-10-23T15:27:57.709Z,43.34
2022-10-23T15:30:28.090Z,43.39
2022-10-23T15:32:58.668Z,43.53
2022-10-23T15:38:22.640Z,43.86
2022-10-23T15:40:53.524Z,43.94
2022-10-23T15:43:24.018Z,44.33
2022-10-23T15:45:54.553Z,44.42
2022-10-23T15:48:25.089Z,44.48
2022-10-23T15:50:55.490Z,44.64
2022-10-23T15:53:28.739Z,44.68
2022-10-23T15:55:59.205Z,44.71
2022-10-23T15:58:29.845Z,45.15
2022-10-23T16:01:03.092Z,45.13
2022-10-23T16:03:34.044Z,45.49
2022-10-23T16:06:07.140Z,45.72
2022-10-23T16:08:41.154Z,45.54
2022-10-23T16:11:17.483Z,45.75
2022-10-23T16:13:48.085Z,46.10
2022-10-23T16:16:19.950Z,45.98
2022-10-23T16:18:50.862Z,46.17
2022-10-23T16:21:23.528Z,46.25
2022-10-23T16:23:59.600Z,46.67
2022-10-23T16:26:30.849Z,46.71
2022-10-23T16:29:04.036Z,46.74
2022-10-23T16:31:35.703Z,47.07
2022-10-23T16:34:07.763Z,47.34
2022-10-23T16:36:39.247Z,47.25
2022-10-23T16:39:39.284Z,47.33
2022-10-23T16:42:31.501Z,47.54
2022-10-23T16:45:22.195Z,47.71
2022-10-23T16:47:52.610Z,48.27
2022-10-23T16:50:23.321Z,48.29
2022-10-23T16:52:55.788Z,48.36
2022-10-23T16:55:29.405Z,48.52
2022-10-23T16:58:00.903Z,48.58
2022-10-23T17:00:35.403Z,48.66
2022-10-23T17:03:07.157Z,48.88
2022-10-23T17:05:38.398Z,49.09
2022-10-23T17:08:08.892Z,49.02
2022-10-23T17:10:42.197Z,49.45
2022-10-23T17:13:12.659Z,49.84
2022-10-23T17:15:43.367Z,49.74
2022-10-23T17:18:13.936Z,49.68
2022-10-23T17:20:44.833Z,49.84
2022-10-23T17:23:15.350Z,50.25
2022-10-23T17:25:49.717Z,50.24
2022-10-23T17:28:20.249Z,50.54
2022-10-23T17:30:50.902Z,50.50
2022-10-23T17:33:21.732Z,50.85
2022-10-23T17:35:52.618Z,50.82
2022-10-23T17:38:23.159Z,51.27
2022-10-23T17:40:56.263Z,51.12
2022-10-23T17:43:26.684Z,51.58
2022-10-23T17:45:57.181Z,51.26
2022-10-23T17:48:27.819Z,51.64
2022-10-23T17:51:06.224Z,51.80
2022-10-23T17:53:37.917Z,51.81
2022-10-23T17:56:13.036Z,52.22
2022-10-23T17:58:43.463Z,52.03
2022-10-23T18:01:16.652Z,52.35
2022-10-23T18:03:47.232Z,52.64
2022-10-23T18:06:20.024Z,52.57
2022-10-23T18:08:50.793Z,52.97
2022-10-23T18:11:27.028Z,53.14
2022-10-23T18:13:57.521Z,53.03
2022-10-23T18:16:28.697Z,53.27
2022-10-23T18:18:59.436Z,53.41
2022-10-23T18:21:31.323Z,53.63
2022-10-23T18:24:02.520Z,53.50
2022-10-23T18:26:37.892Z,53.69
2022-10-23T18:29:09.367Z,54.65
2022-10-23T18:31:40.911Z,53.77
2022-10-23T18:34:16.372Z,54.08
2022-10-23T18:36:47.477Z,54.25
2022-10-23T18:39:22.607Z,54.22
2022-10-23T18:41:57.888Z,55.29
2022-10-23T18:44:30.011Z,54.57
2022-10-23T18:47:02.004Z,54.60
2022-10-23T18:49:32.524Z,54.63
2022-10-23T18:52:03.654Z,55.05
2022-10-23T18:54:34.087Z,54.90
2022-10-23T18:57:07.572Z,55.21
2022-10-23T18:59:38.003Z,55.27
2022-10-23T19:02:08.768Z,55.11
2022-10-23T19:04:39.332Z,55.43
2022-10-23T19:07:09.885Z,55.74
2022-10-23T19:09:40.436Z,55.53
2022-10-23T19:15:04.259Z,55.95
2022-10-23T19:17:35.806Z,56.05
2022-10-23T19:20:11.877Z,56.13
2022-10-23T19:22:44.065Z,56.30
2022-10-23T19:25:19.875Z,56.49
2022-10-23T19:27:53.496Z,56.74
2022-10-23T19:30:24.787Z,56.85
2022-10-23T19:32:56.230Z,57.05
2022-10-23T19:35:26.716Z,56.92
2022-10-23T19:37:57.297Z,57.35
2022-10-23T19:40:27.789Z,57.50
2022-10-23T19:43:01.214Z,57.79
2022-10-23T19:48:22.072Z,57.78
2022-10-23T19:50:52.527Z,58.04
2022-10-23T19:53:26.309Z,58.52
2022-10-23T19:56:04.763Z,58.48
2022-10-23T19:58:38.137Z,58.28
2022-10-23T20:01:13.564Z,58.76
2022-10-23T20:03:45.674Z,58.84
2022-10-23T20:06:18.809Z,58.84
2022-10-23T20:08:49.902Z,59.02
2022-10-23T20:11:22.305Z,59.35
2022-10-23T20:13:55.536Z,59.45
2022-10-23T20:16:28.309Z,59.43
2022-10-23T20:18:59.761Z,59.44
2022-10-23T20:21:30.368Z,59.78
2022-10-23T20:24:02.098Z,59.80
2022-10-23T20:26:32.589Z,60.26
2022-10-23T20:29:05.731Z,60.23
2022-10-23T20:31:36.821Z,60.40
2022-10-23T20:34:07.453Z,60.62
2022-10-23T20:36:45.435Z,60.43
2022-10-23T20:39:20.148Z,59.74
2022-10-23T20:41:50.976Z,59.14
2022-10-23T20:44:24.579Z,62.09
2022-10-23T20:46:55.306Z,65.35
2022-10-23T20:49:25.963Z,66.53
2022-10-23T20:51:58.040Z,70.13
2022-10-23T20:54:30.381Z,73.02
2022-10-23T20:57:01.464Z,74.05
2022-10-23T20:59:35.510Z,74.90
2022-10-23T21:02:06.079Z,77.37
2022-10-23T21:04:36.735Z,79.00
2022-10-23T21:07:11.315Z,79.52
2022-10-23T21:09:42.986Z,80.49
2022-10-23T21:12:13.533Z,79.15
2022-10-23T21:14:46.727Z,77.83
2022-10-23T21:17:18.230Z,76.95
2022-10-23T21:19:48.982Z,77.11
2022-10-23T21:22:19.430Z,79.26
2022-10-23T21:24:50.363Z,81.01
2022-10-23T21:27:20.884Z,81.32
2022-10-23T21:29:54.064Z,82.39
2022-10-23T21:32:24.483Z,81.37
2022-10-23T21:34:55.320Z,81.16
2022-10-23T21:37:25.936Z,80.52
2022-10-23T21:39:56.495Z,79.07
2022-10-23T21:42:26.926Z,77.87
2022-10-23T21:45:00.033Z,78.56
2022-10-23T21:47:30.455Z,80.04
2022-10-23T21:50:00.954Z,81.93
2022-10-23T21:52:31.329Z,83.04
2022-10-23T21:55:02.013Z,83.26
2022-10-23T21:57:33.771Z,83.07
2022-10-23T22:00:08.743Z,83.05
2022-10-23T22:02:43.413Z,82.69
2022-10-23T22:05:14.131Z,82.07
2022-10-23T22:07:48.757Z,80.43
2022-10-23T22:10:19.871Z,79.66
2022-10-23T22:12:50.287Z,80.46
2022-10-23T22:15:23.440Z,82.13
2022-10-23T22:17:53.875Z,83.63
2022-10-23T22:20:24.555Z,84.38
2022-10-23T22:22:55.245Z,84.45
2022-10-23T22:25:26.128Z,84.66
2022-10-23T22:27:57.128Z,84.85
2022-10-23T22:30:30.343Z,84.32
2022-10-23T22:33:00.728Z,84.64
2022-10-23T22:35:32.651Z,84.31
2022-10-23T22:38:03.067Z,84.27
2022-10-23T22:40:33.695Z,85.08
2022-10-23T22:43:04.133Z,84.84
2022-10-23T22:45:37.256Z,85.08
2022-10-23T22:48:08.625Z,85.05
2022-10-23T22:50:39.145Z,84.96
2022-10-23T22:53:09.561Z,85.09
2022-10-23T22:55:44.629Z,85.02
2022-10-23T22:58:15.092Z,85.14
2022-10-23T23:00:48.687Z,85.14
2022-10-23T23:03:19.503Z,85.00
2022-10-23T23:05:51.036Z,85.33
2022-10-23T23:08:21.403Z,84.88
2022-10-23T23:10:56.063Z,85.30
2022-10-23T23:13:27.102Z,85.46
2022-10-23T23:16:00.521Z,85.46
2022-10-23T23:18:31.602Z,85.80
2022-10-23T23:21:04.295Z,86.08
2022-10-23T23:23:34.858Z,86.38
2022-10-23T23:26:08.595Z,86.18
2022-10-23T23:28:39.236Z,85.99
2022-10-23T23:31:15.368Z,86.49
2022-10-23T23:33:45.957Z,86.29
2022-10-23T23:36:19.278Z,86.50
2022-10-23T23:38:50.045Z,86.40
2022-10-23T23:41:22.104Z,86.56
2022-10-23T23:43:53.411Z,86.53
2022-10-23T23:46:26.531Z,86.57
2022-10-23T23:48:57.034Z,86.34
2022-10-23T23:51:28.737Z,86.24
2022-10-23T23:53:59.221Z,86.21
2022-10-23T23:56:29.724Z,86.36
2022-10-23T23:59:01.089Z,86.37
